sensor_id;sensor_type;location;lat;lon;timestamp;temperature;humidity
9542;DHT22;4809;48.224;8.572;2023-02-28T00:01:20;-2.20;84.70
9542;DHT22;4809;48.224;8.572;2023-02-28T00:03:45;-2.20;85.70
9542;DHT22;4809;48.224;8.572;2023-02-28T00:06:11;-2.20;86.30
9542;DHT22;4809;48.224;8.572;2023-02-28T00:08:38;-2.10;86.40
9542;DHT22;4809;48.224;8.572;2023-02-28T00:11:05;-2.20;86.50
9542;DHT22;4809;48.224;8.572;2023-02-28T00:13:33;-2.10;86.40
9542;DHT22;4809;48.224;8.572;2023-02-28T00:16:10;-2.10;86.40
9542;DHT22;4809;48.224;8.572;2023-02-28T00:18:36;-2.20;87.30
9542;DHT22;4809;48.224;8.572;2023-02-28T00:21:03;-2.20;87.00
9542;DHT22;4809;48.224;8.572;2023-02-28T00:23:29;-2.10;87.60
9542;DHT22;4809;48.224;8.572;2023-02-28T00:25:54;-2.20;87.20
9542;DHT22;4809;48.224;8.572;2023-02-28T00:28:20;-2.10;87.50
9542;DHT22;4809;48.224;8.572;2023-02-28T00:30:46;-2.20;87.10
9542;DHT22;4809;48.224;8.572;2023-02-28T00:33:12;-2.20;88.00
9542;DHT22;4809;48.224;8.572;2023-02-28T00:35:38;-2.20;88.30
9542;DHT22;4809;48.224;8.572;2023-02-28T00:38:03;-2.20;88.20
9542;DHT22;4809;48.224;8.572;2023-02-28T00:40:29;-2.20;89.10
9542;DHT22;4809;48.224;8.572;2023-02-28T00:42:55;-2.10;89.00
9542;DHT22;4809;48.224;8.572;2023-02-28T00:45:20;-2.20;89.50
9542;DHT22;4809;48.224;8.572;2023-02-28T00:47:46;-2.20;89.30
9542;DHT22;4809;48.224;8.572;2023-02-28T00:50:18;-2.20;89.50
9542;DHT22;4809;48.224;8.572;2023-02-28T00:52:45;-2.20;90.00
9542;DHT22;4809;48.224;8.572;2023-02-28T00:55:11;-2.20;89.90
9542;DHT22;4809;48.224;8.572;2023-02-28T00:57:36;-2.20;90.10
9542;DHT22;4809;48.224;8.572;2023-02-28T01:00:03;-2.20;90.20
9542;DHT22;4809;48.224;8.572;2023-02-28T01:02:29;-2.20;90.50
9542;DHT22;4809;48.224;8.572;2023-02-28T01:04:54;-2.20;90.60
9542;DHT22;4809;48.224;8.572;2023-02-28T01:07:22;-2.20;90.50
9542;DHT22;4809;48.224;8.572;2023-02-28T01:09:47;-2.30;90.50
9542;DHT22;4809;48.224;8.572;2023-02-28T01:12:13;-2.30;91.10
9542;DHT22;4809;48.224;8.572;2023-02-28T01:14:39;-2.30;91.00
9542;DHT22;4809;48.224;8.572;2023-02-28T01:17:05;-2.30;91.10
9542;DHT22;4809;48.224;8.572;2023-02-28T01:19:31;-2.30;91.50
9542;DHT22;4809;48.224;8.572;2023-02-28T01:21:57;-2.30;91.50
9542;DHT22;4809;48.224;8.572;2023-02-28T01:24:25;-2.30;91.80
9542;DHT22;4809;48.224;8.572;2023-02-28T01:26:50;-2.30;92.10
9542;DHT22;4809;48.224;8.572;2023-02-28T01:29:16;-2.30;92.10
9542;DHT22;4809;48.224;8.572;2023-02-28T01:31:42;-2.30;92.30
9542;DHT22;4809;48.224;8.572;2023-02-28T01:34:07;-2.30;92.50
9542;DHT22;4809;48.224;8.572;2023-02-28T01:36:33;-2.20;92.50
9542;DHT22;4809;48.224;8.572;2023-02-28T01:38:58;-2.20;92.90
9542;DHT22;4809;48.224;8.572;2023-02-28T01:41:34;-2.30;92.80
9542;DHT22;4809;48.224;8.572;2023-02-28T01:44:05;-2.40;93.30
9542;DHT22;4809;48.224;8.572;2023-02-28T01:46:34;-2.40;93.70
9542;DHT22;4809;48.224;8.572;2023-02-28T01:49:07;-2.40;94.10
9542;DHT22;4809;48.224;8.572;2023-02-28T01:51:41;-2.30;94.30
9542;DHT22;4809;48.224;8.572;2023-02-28T01:54:14;-2.30;94.70
9542;DHT22;4809;48.224;8.572;2023-02-28T01:56:46;-2.30;94.90
9542;DHT22;4809;48.224;8.572;2023-02-28T01:59:17;-2.40;95.00
9542;DHT22;4809;48.224;8.572;2023-02-28T02:01:46;-2.30;95.10
9542;DHT22;4809;48.224;8.572;2023-02-28T02:04:12;-2.40;95.00
9542;DHT22;4809;48.224;8.572;2023-02-28T02:06:43;-2.40;95.40
9542;DHT22;4809;48.224;8.572;2023-02-28T02:09:11;-2.40;95.80
9542;DHT22;4809;48.224;8.572;2023-02-28T02:11:39;-2.40;96.10
9542;DHT22;4809;48.224;8.572;2023-02-28T02:14:40;-2.40;95.70
9542;DHT22;4809;48.224;8.572;2023-02-28T02:17:20;-2.40;96.00
9542;DHT22;4809;48.224;8.572;2023-02-28T02:22:42;-2.40;95.90
9542;DHT22;4809;48.224;8.572;2023-02-28T02:28:09;-2.50;96.30
9542;DHT22;4809;48.224;8.572;2023-02-28T02:36:19;-2.50;96.80
9542;DHT22;4809;48.224;8.572;2023-02-28T02:38:52;-2.50;96.70
9542;DHT22;4809;48.224;8.572;2023-02-28T02:41:52;-2.40;96.60
9542;DHT22;4809;48.224;8.572;2023-02-28T02:44:40;-2.50;96.90
9542;DHT22;4809;48.224;8.572;2023-02-28T02:47:18;-2.50;97.00
9542;DHT22;4809;48.224;8.572;2023-02-28T02:49:51;-2.60;97.00
9542;DHT22;4809;48.224;8.572;2023-02-28T02:52:21;-2.70;97.60
9542;DHT22;4809;48.224;8.572;2023-02-28T02:54:50;-2.60;97.90
9542;DHT22;4809;48.224;8.572;2023-02-28T02:57:32;-2.60;98.50
9542;DHT22;4809;48.224;8.572;2023-02-28T03:00:00;-2.60;99.00
9542;DHT22;4809;48.224;8.572;2023-02-28T03:02:28;-2.60;98.80
9542;DHT22;4809;48.224;8.572;2023-02-28T03:05:03;-2.50;98.80
9542;DHT22;4809;48.224;8.572;2023-02-28T03:07:30;-2.60;98.40
9542;DHT22;4809;48.224;8.572;2023-02-28T03:09:57;-2.60;98.40
9542;DHT22;4809;48.224;8.572;2023-02-28T03:12:40;-2.60;98.80
9542;DHT22;4809;48.224;8.572;2023-02-28T03:15:23;-2.60;98.40
9542;DHT22;4809;48.224;8.572;2023-02-28T03:18:25;-2.60;98.70
9542;DHT22;4809;48.224;8.572;2023-02-28T03:21:32;-2.60;98.60
9542;DHT22;4809;48.224;8.572;2023-02-28T03:26:55;-2.60;99.50
9542;DHT22;4809;48.224;8.572;2023-02-28T03:29:35;-2.60;99.40
9542;DHT22;4809;48.224;8.572;2023-02-28T03:32:11;-2.70;99.30
9542;DHT22;4809;48.224;8.572;2023-02-28T03:35:00;-2.70;99.70
9542;DHT22;4809;48.224;8.572;2023-02-28T03:37:27;-2.70;99.90
9542;DHT22;4809;48.224;8.572;2023-02-28T03:40:11;-2.70;99.90
9542;DHT22;4809;48.224;8.572;2023-02-28T03:42:40;-2.80;99.90
9542;DHT22;4809;48.224;8.572;2023-02-28T03:45:19;-2.80;99.90
9542;DHT22;4809;48.224;8.572;2023-02-28T03:47:54;-2.80;99.90
9542;DHT22;4809;48.224;8.572;2023-02-28T03:53:03;-2.80;99.90
9542;DHT22;4809;48.224;8.572;2023-02-28T03:55:33;-2.90;99.90
9542;DHT22;4809;48.224;8.572;2023-02-28T04:01:09;-2.90;99.90
9542;DHT22;4809;48.224;8.572;2023-02-28T04:03:36;-2.90;99.90
9542;DHT22;4809;48.224;8.572;2023-02-28T04:06:03;-2.90;99.90
9542;DHT22;4809;48.224;8.572;2023-02-28T04:08:29;-2.90;99.90
9542;DHT22;4809;48.224;8.572;2023-02-28T04:11:02;-2.90;99.90
9542;DHT22;4809;48.224;8.572;2023-02-28T04:13:29;-2.90;99.90
9542;DHT22;4809;48.224;8.572;2023-02-28T04:15:55;-2.90;99.90
9542;DHT22;4809;48.224;8.572;2023-02-28T04:18:21;-2.90;99.90
9542;DHT22;4809;48.224;8.572;2023-02-28T04:20:46;-2.90;99.90
9542;DHT22;4809;48.224;8.572;2023-02-28T04:23:12;-3.00;99.90
9542;DHT22;4809;48.224;8.572;2023-02-28T04:25:37;-3.00;99.90
9542;DHT22;4809;48.224;8.572;2023-02-28T04:28:05;-3.00;99.90
9542;DHT22;4809;48.224;8.572;2023-02-28T04:30:31;-3.00;99.90
9542;DHT22;4809;48.224;8.572;2023-02-28T04:32:58;-3.00;99.90
9542;DHT22;4809;48.224;8.572;2023-02-28T04:35:24;-3.10;99.90
9542;DHT22;4809;48.224;8.572;2023-02-28T04:37:49;-3.10;99.90
9542;DHT22;4809;48.224;8.572;2023-02-28T04:40:15;-3.10;99.90
9542;DHT22;4809;48.224;8.572;2023-02-28T04:42:41;-3.10;99.90
9542;DHT22;4809;48.224;8.572;2023-02-28T04:45:07;-3.10;99.90
9542;DHT22;4809;48.224;8.572;2023-02-28T04:47:35;-3.10;99.90
9542;DHT22;4809;48.224;8.572;2023-02-28T04:50:01;-3.10;99.90
9542;DHT22;4809;48.224;8.572;2023-02-28T04:52:27;-3.00;99.90
9542;DHT22;4809;48.224;8.572;2023-02-28T04:54:53;-3.00;99.90
9542;DHT22;4809;48.224;8.572;2023-02-28T04:57:18;-3.10;99.90
9542;DHT22;4809;48.224;8.572;2023-02-28T04:59:44;-3.10;99.90
9542;DHT22;4809;48.224;8.572;2023-02-28T05:02:09;-3.10;99.90
9542;DHT22;4809;48.224;8.572;2023-02-28T05:04:36;-3.10;99.90
9542;DHT22;4809;48.224;8.572;2023-02-28T05:07:02;-3.10;99.90
9542;DHT22;4809;48.224;8.572;2023-02-28T05:09:29;-3.20;99.90
9542;DHT22;4809;48.224;8.572;2023-02-28T05:11:55;-3.20;99.90
9542;DHT22;4809;48.224;8.572;2023-02-28T05:14:21;-3.20;99.90
9542;DHT22;4809;48.224;8.572;2023-02-28T05:16:46;-3.20;99.90
9542;DHT22;4809;48.224;8.572;2023-02-28T05:19:12;-3.30;99.90
9542;DHT22;4809;48.224;8.572;2023-02-28T05:21:40;-3.20;99.90
9542;DHT22;4809;48.224;8.572;2023-02-28T05:24:12;-3.20;99.90
9542;DHT22;4809;48.224;8.572;2023-02-28T05:26:40;-3.20;99.90
9542;DHT22;4809;48.224;8.572;2023-02-28T05:29:06;-3.20;99.90
9542;DHT22;4809;48.224;8.572;2023-02-28T05:31:33;-3.20;99.90
9542;DHT22;4809;48.224;8.572;2023-02-28T05:33:59;-3.10;99.90
9542;DHT22;4809;48.224;8.572;2023-02-28T05:36:24;-3.10;99.90
9542;DHT22;4809;48.224;8.572;2023-02-28T05:38:50;-3.20;99.90
9542;DHT22;4809;48.224;8.572;2023-02-28T05:41:18;-3.10;99.90
9542;DHT22;4809;48.224;8.572;2023-02-28T05:43:44;-3.20;99.90
9542;DHT22;4809;48.224;8.572;2023-02-28T05:46:11;-3.20;99.90
9542;DHT22;4809;48.224;8.572;2023-02-28T05:48:39;-3.10;99.90
9542;DHT22;4809;48.224;8.572;2023-02-28T05:51:06;-3.10;99.90
9542;DHT22;4809;48.224;8.572;2023-02-28T05:53:33;-3.10;99.90
9542;DHT22;4809;48.224;8.572;2023-02-28T05:55:59;-3.10;99.90
9542;DHT22;4809;48.224;8.572;2023-02-28T05:58:25;-3.10;99.90
9542;DHT22;4809;48.224;8.572;2023-02-28T06:00:54;-3.10;99.90
9542;DHT22;4809;48.224;8.572;2023-02-28T06:03:20;-3.10;99.90
9542;DHT22;4809;48.224;8.572;2023-02-28T06:05:46;-3.00;99.90
9542;DHT22;4809;48.224;8.572;2023-02-28T06:08:12;-3.00;99.90
9542;DHT22;4809;48.224;8.572;2023-02-28T06:10:38;-3.10;99.90
9542;DHT22;4809;48.224;8.572;2023-02-28T06:13:04;-3.10;99.90
9542;DHT22;4809;48.224;8.572;2023-02-28T06:15:30;-3.10;99.90
9542;DHT22;4809;48.224;8.572;2023-02-28T06:17:56;-3.10;99.90
9542;DHT22;4809;48.224;8.572;2023-02-28T06:20:23;-3.10;99.90
9542;DHT22;4809;48.224;8.572;2023-02-28T06:22:50;-3.10;99.90
9542;DHT22;4809;48.224;8.572;2023-02-28T06:25:17;-3.10;99.90
9542;DHT22;4809;48.224;8.572;2023-02-28T06:27:43;-3.00;99.90
9542;DHT22;4809;48.224;8.572;2023-02-28T06:30:10;-3.00;99.90
9542;DHT22;4809;48.224;8.572;2023-02-28T06:32:36;-3.00;99.90
9542;DHT22;4809;48.224;8.572;2023-02-28T06:35:02;-3.00;99.90
9542;DHT22;4809;48.224;8.572;2023-02-28T06:37:29;-3.00;99.90
9542;DHT22;4809;48.224;8.572;2023-02-28T06:39:55;-3.00;99.90
9542;DHT22;4809;48.224;8.572;2023-02-28T06:42:22;-2.90;99.90
9542;DHT22;4809;48.224;8.572;2023-02-28T06:44:50;-2.90;99.90
9542;DHT22;4809;48.224;8.572;2023-02-28T06:47:16;-3.00;99.90
9542;DHT22;4809;48.224;8.572;2023-02-28T06:49:42;-3.00;99.90
9542;DHT22;4809;48.224;8.572;2023-02-28T06:52:07;-3.00;99.90
9542;DHT22;4809;48.224;8.572;2023-02-28T06:54:36;-2.90;99.90
9542;DHT22;4809;48.224;8.572;2023-02-28T06:57:02;-2.90;99.90
9542;DHT22;4809;48.224;8.572;2023-02-28T06:59:28;-2.90;99.90
9542;DHT22;4809;48.224;8.572;2023-02-28T07:01:53;-2.90;99.90
9542;DHT22;4809;48.224;8.572;2023-02-28T07:04:20;-2.90;99.90
9542;DHT22;4809;48.224;8.572;2023-02-28T07:06:46;-2.90;99.90
9542;DHT22;4809;48.224;8.572;2023-02-28T07:09:12;-2.80;99.90
9542;DHT22;4809;48.224;8.572;2023-02-28T07:11:39;-2.70;99.90
9542;DHT22;4809;48.224;8.572;2023-02-28T07:14:05;-2.60;99.90
9542;DHT22;4809;48.224;8.572;2023-02-28T07:16:30;-2.60;99.90
9542;DHT22;4809;48.224;8.572;2023-02-28T07:18:56;-2.50;99.90
9542;DHT22;4809;48.224;8.572;2023-02-28T07:21:22;-2.50;99.90
9542;DHT22;4809;48.224;8.572;2023-02-28T07:23:48;-2.50;99.90
9542;DHT22;4809;48.224;8.572;2023-02-28T07:26:16;-2.40;99.90
9542;DHT22;4809;48.224;8.572;2023-02-28T07:28:43;-2.40;99.90
9542;DHT22;4809;48.224;8.572;2023-02-28T07:31:10;-2.30;99.90
9542;DHT22;4809;48.224;8.572;2023-02-28T07:33:36;-2.30;99.90
9542;DHT22;4809;48.224;8.572;2023-02-28T07:36:08;-2.20;99.90
9542;DHT22;4809;48.224;8.572;2023-02-28T07:38:35;-2.20;99.90
9542;DHT22;4809;48.224;8.572;2023-02-28T07:41:02;-2.20;99.90
9542;DHT22;4809;48.224;8.572;2023-02-28T07:43:31;-2.10;99.90
9542;DHT22;4809;48.224;8.572;2023-02-28T07:46:08;-2.00;99.90
9542;DHT22;4809;48.224;8.572;2023-02-28T07:48:34;-2.00;99.90
9542;DHT22;4809;48.224;8.572;2023-02-28T07:51:00;-1.90;99.90
9542;DHT22;4809;48.224;8.572;2023-02-28T07:53:27;-1.90;99.90
9542;DHT22;4809;48.224;8.572;2023-02-28T07:55:57;-1.90;99.90
9542;DHT22;4809;48.224;8.572;2023-02-28T07:58:23;-1.90;99.90
9542;DHT22;4809;48.224;8.572;2023-02-28T08:00:49;-1.90;99.90
9542;DHT22;4809;48.224;8.572;2023-02-28T08:03:16;-1.90;99.90
9542;DHT22;4809;48.224;8.572;2023-02-28T08:05:42;-1.80;99.90
9542;DHT22;4809;48.224;8.572;2023-02-28T08:08:08;-1.80;99.90
9542;DHT22;4809;48.224;8.572;2023-02-28T08:10:34;-1.80;99.90
9542;DHT22;4809;48.224;8.572;2023-02-28T08:13:00;-1.80;99.90
9542;DHT22;4809;48.224;8.572;2023-02-28T08:15:26;-1.70;99.90
9542;DHT22;4809;48.224;8.572;2023-02-28T08:17:51;-1.60;99.90
9542;DHT22;4809;48.224;8.572;2023-02-28T08:20:17;-1.50;99.90
9542;DHT22;4809;48.224;8.572;2023-02-28T08:22:43;-1.50;99.90
9542;DHT22;4809;48.224;8.572;2023-02-28T08:25:09;-1.50;99.90
9542;DHT22;4809;48.224;8.572;2023-02-28T08:27:35;-1.40;99.90
9542;DHT22;4809;48.224;8.572;2023-02-28T08:30:01;-1.30;99.90
9542;DHT22;4809;48.224;8.572;2023-02-28T08:32:28;-1.30;99.90
9542;DHT22;4809;48.224;8.572;2023-02-28T08:34:54;-1.30;99.90
9542;DHT22;4809;48.224;8.572;2023-02-28T08:37:19;-1.30;99.90
9542;DHT22;4809;48.224;8.572;2023-02-28T08:39:45;-1.30;99.90
9542;DHT22;4809;48.224;8.572;2023-02-28T08:42:11;-1.30;99.90
9542;DHT22;4809;48.224;8.572;2023-02-28T08:44:37;-1.20;99.90
9542;DHT22;4809;48.224;8.572;2023-02-28T08:47:02;-1.20;99.90
9542;DHT22;4809;48.224;8.572;2023-02-28T08:49:28;-1.10;99.90
9542;DHT22;4809;48.224;8.572;2023-02-28T08:51:54;-1.00;99.90
9542;DHT22;4809;48.224;8.572;2023-02-28T08:54:20;-1.00;99.90
9542;DHT22;4809;48.224;8.572;2023-02-28T08:56:46;-0.90;99.90
9542;DHT22;4809;48.224;8.572;2023-02-28T08:59:13;-0.80;99.90
9542;DHT22;4809;48.224;8.572;2023-02-28T09:01:39;-0.90;99.90
9542;DHT22;4809;48.224;8.572;2023-02-28T09:04:06;-0.80;99.90
9542;DHT22;4809;48.224;8.572;2023-02-28T09:06:34;-0.80;99.90
9542;DHT22;4809;48.224;8.572;2023-02-28T09:09:00;-0.60;99.90
9542;DHT22;4809;48.224;8.572;2023-02-28T09:11:27;-0.60;99.90
9542;DHT22;4809;48.224;8.572;2023-02-28T09:13:53;-0.50;99.90
9542;DHT22;4809;48.224;8.572;2023-02-28T09:16:18;-0.40;99.90
9542;DHT22;4809;48.224;8.572;2023-02-28T09:18:45;-0.30;99.50
9542;DHT22;4809;48.224;8.572;2023-02-28T09:21:13;-0.40;99.20
9542;DHT22;4809;48.224;8.572;2023-02-28T09:23:40;-0.30;99.40
9542;DHT22;4809;48.224;8.572;2023-02-28T09:26:07;-0.30;99.00
9542;DHT22;4809;48.224;8.572;2023-02-28T09:28:33;-0.20;98.80
9542;DHT22;4809;48.224;8.572;2023-02-28T09:30:59;-0.20;98.60
9542;DHT22;4809;48.224;8.572;2023-02-28T09:33:25;-0.10;99.20
9542;DHT22;4809;48.224;8.572;2023-02-28T09:35:57;-0.10;98.00
9542;DHT22;4809;48.224;8.572;2023-02-28T09:38:23;0.00;98.00
9542;DHT22;4809;48.224;8.572;2023-02-28T09:40:58;0.00;97.70
9542;DHT22;4809;48.224;8.572;2023-02-28T09:43:28;0.00;97.60
9542;DHT22;4809;48.224;8.572;2023-02-28T09:46:02;0.10;97.50
9542;DHT22;4809;48.224;8.572;2023-02-28T09:48:38;0.10;97.20
9542;DHT22;4809;48.224;8.572;2023-02-28T09:53:37;0.30;96.80
9542;DHT22;4809;48.224;8.572;2023-02-28T09:56:08;0.30;96.50
9542;DHT22;4809;48.224;8.572;2023-02-28T09:58:37;0.40;97.20
9542;DHT22;4809;48.224;8.572;2023-02-28T10:01:31;0.40;96.20
9542;DHT22;4809;48.224;8.572;2023-02-28T10:04:35;0.40;95.70
9542;DHT22;4809;48.224;8.572;2023-02-28T10:07:10;0.30;95.90
9542;DHT22;4809;48.224;8.572;2023-02-28T10:09:44;0.40;96.20
9542;DHT22;4809;48.224;8.572;2023-02-28T10:12:11;0.50;96.20
9542;DHT22;4809;48.224;8.572;2023-02-28T10:14:39;0.60;95.00
9542;DHT22;4809;48.224;8.572;2023-02-28T10:17:25;0.60;95.60
9542;DHT22;4809;48.224;8.572;2023-02-28T10:20:02;0.70;95.10
9542;DHT22;4809;48.224;8.572;2023-02-28T10:25:26;0.70;94.10
9542;DHT22;4809;48.224;8.572;2023-02-28T10:28:11;0.70;93.00
9542;DHT22;4809;48.224;8.572;2023-02-28T10:30:41;0.70;93.10
9542;DHT22;4809;48.224;8.572;2023-02-28T10:35:50;0.60;93.00
9542;DHT22;4809;48.224;8.572;2023-02-28T10:38:20;0.70;93.50
9542;DHT22;4809;48.224;8.572;2023-02-28T10:40:46;0.70;93.30
9542;DHT22;4809;48.224;8.572;2023-02-28T10:45:54;0.70;92.80
9542;DHT22;4809;48.224;8.572;2023-02-28T11:00:05;1.20;91.40
9542;DHT22;4809;48.224;8.572;2023-02-28T11:01:49;1.30;90.60
9542;DHT22;4809;48.224;8.572;2023-02-28T11:07:21;1.40;90.50
9542;DHT22;4809;48.224;8.572;2023-02-28T11:09:55;1.40;90.50
9542;DHT22;4809;48.224;8.572;2023-02-28T11:12:36;1.40;90.10
9542;DHT22;4809;48.224;8.572;2023-02-28T11:15:18;1.40;90.40
9542;DHT22;4809;48.224;8.572;2023-02-28T11:20:24;1.30;90.20
9542;DHT22;4809;48.224;8.572;2023-02-28T11:22:50;1.30;89.70
9542;DHT22;4809;48.224;8.572;2023-02-28T11:25:37;1.30;90.30
9542;DHT22;4809;48.224;8.572;2023-02-28T11:28:05;1.20;90.10
9542;DHT22;4809;48.224;8.572;2023-02-28T11:30:41;1.30;90.00
9542;DHT22;4809;48.224;8.572;2023-02-28T11:35:52;1.40;90.20
9542;DHT22;4809;48.224;8.572;2023-02-28T11:38:19;1.40;90.30
9542;DHT22;4809;48.224;8.572;2023-02-28T11:51:32;1.50;88.20
9542;DHT22;4809;48.224;8.572;2023-02-28T11:54:16;1.50;90.20
9542;DHT22;4809;48.224;8.572;2023-02-28T11:57:16;1.60;90.20
9542;DHT22;4809;48.224;8.572;2023-02-28T11:59:55;1.70;89.40
9542;DHT22;4809;48.224;8.572;2023-02-28T12:02:29;1.70;86.90
9542;DHT22;4809;48.224;8.572;2023-02-28T12:05:21;1.70;87.90
9542;DHT22;4809;48.224;8.572;2023-02-28T12:08:01;1.60;89.70
9542;DHT22;4809;48.224;8.572;2023-02-28T12:10:32;1.70;88.10
9542;DHT22;4809;48.224;8.572;2023-02-28T12:13:24;1.80;87.80
9542;DHT22;4809;48.224;8.572;2023-02-28T12:27:09;2.20;86.60
9542;DHT22;4809;48.224;8.572;2023-02-28T12:30:03;2.10;85.20
9542;DHT22;4809;48.224;8.572;2023-02-28T12:32:40;2.20;86.80
9542;DHT22;4809;48.224;8.572;2023-02-28T12:35:13;2.30;86.50
9542;DHT22;4809;48.224;8.572;2023-02-28T12:40:20;2.60;84.40
9542;DHT22;4809;48.224;8.572;2023-02-28T12:42:50;2.50;83.40
9542;DHT22;4809;48.224;8.572;2023-02-28T12:45:23;2.50;82.90
9542;DHT22;4809;48.224;8.572;2023-02-28T12:47:55;2.50;83.30
9542;DHT22;4809;48.224;8.572;2023-02-28T12:50:23;2.60;83.80
9542;DHT22;4809;48.224;8.572;2023-02-28T12:58:39;3.10;80.80
9542;DHT22;4809;48.224;8.572;2023-02-28T13:04:24;3.40;79.10
9542;DHT22;4809;48.224;8.572;2023-02-28T13:09:21;3.50;78.70
9542;DHT22;4809;48.224;8.572;2023-02-28T13:11:49;3.50;78.50
9542;DHT22;4809;48.224;8.572;2023-02-28T13:16:57;3.80;79.30
9542;DHT22;4809;48.224;8.572;2023-02-28T13:19:26;4.30;76.10
9542;DHT22;4809;48.224;8.572;2023-02-28T13:21:53;4.60;75.10
9542;DHT22;4809;48.224;8.572;2023-02-28T13:24:55;4.60;72.30
9542;DHT22;4809;48.224;8.572;2023-02-28T13:27:33;4.50;74.60
9542;DHT22;4809;48.224;8.572;2023-02-28T13:29:59;4.90;73.30
9542;DHT22;4809;48.224;8.572;2023-02-28T13:47:40;5.90;63.00
9542;DHT22;4809;48.224;8.572;2023-02-28T14:06:53;9.40;53.50
9542;DHT22;4809;48.224;8.572;2023-02-28T14:09:29;9.20;54.10
9542;DHT22;4809;48.224;8.572;2023-02-28T14:11:56;8.80;53.20
9542;DHT22;4809;48.224;8.572;2023-02-28T14:17:14;7.70;53.90
9542;DHT22;4809;48.224;8.572;2023-02-28T14:19:44;9.70;53.10
9542;DHT22;4809;48.224;8.572;2023-02-28T14:22:43;14.10;43.50
9542;DHT22;4809;48.224;8.572;2023-02-28T14:30:40;23.70;25.10
9542;DHT22;4809;48.224;8.572;2023-02-28T14:39:14;25.70;22.40
9542;DHT22;4809;48.224;8.572;2023-02-28T14:43:56;26.50;21.70
9542;DHT22;4809;48.224;8.572;2023-02-28T14:46:25;26.70;21.00
9542;DHT22;4809;48.224;8.572;2023-02-28T14:48:52;26.40;21.00
9542;DHT22;4809;48.224;8.572;2023-02-28T14:51:19;26.90;20.30
9542;DHT22;4809;48.224;8.572;2023-02-28T14:53:52;27.80;20.00
9542;DHT22;4809;48.224;8.572;2023-02-28T14:56:23;28.20;19.50
9542;DHT22;4809;48.224;8.572;2023-02-28T14:58:55;28.50;18.80
9542;DHT22;4809;48.224;8.572;2023-02-28T15:01:23;28.60;18.20
9542;DHT22;4809;48.224;8.572;2023-02-28T15:03:57;28.80;18.70
9542;DHT22;4809;48.224;8.572;2023-02-28T15:06:24;28.30;19.00
9542;DHT22;4809;48.224;8.572;2023-02-28T15:09:07;28.00;18.60
9542;DHT22;4809;48.224;8.572;2023-02-28T15:11:33;26.50;20.20
9542;DHT22;4809;48.224;8.572;2023-02-28T15:14:00;27.00;19.80
9542;DHT22;4809;48.224;8.572;2023-02-28T15:16:39;25.40;20.40
9542;DHT22;4809;48.224;8.572;2023-02-28T15:19:27;23.50;22.20
9542;DHT22;4809;48.224;8.572;2023-02-28T15:22:08;24.70;21.10
9542;DHT22;4809;48.224;8.572;2023-02-28T15:24:39;24.50;21.10
9542;DHT22;4809;48.224;8.572;2023-02-28T15:27:11;25.10;21.10
9542;DHT22;4809;48.224;8.572;2023-02-28T15:29:57;26.00;20.10
9542;DHT22;4809;48.224;8.572;2023-02-28T15:32:31;26.00;19.70
9542;DHT22;4809;48.224;8.572;2023-02-28T15:34:59;25.60;20.80
9542;DHT22;4809;48.224;8.572;2023-02-28T15:37:56;25.60;20.80
9542;DHT22;4809;48.224;8.572;2023-02-28T15:40:31;26.50;20.10
9542;DHT22;4809;48.224;8.572;2023-02-28T15:46:15;26.50;19.40
9542;DHT22;4809;48.224;8.572;2023-02-28T15:51:18;24.50;20.70
9542;DHT22;4809;48.224;8.572;2023-02-28T15:53:50;21.90;22.00
9542;DHT22;4809;48.224;8.572;2023-02-28T15:56:28;21.30;23.30
9542;DHT22;4809;48.224;8.572;2023-02-28T15:59:06;19.60;24.30
9542;DHT22;4809;48.224;8.572;2023-02-28T16:01:37;16.10;26.90
9542;DHT22;4809;48.224;8.572;2023-02-28T16:04:18;13.40;30.10
9542;DHT22;4809;48.224;8.572;2023-02-28T16:06:45;11.60;33.60
9542;DHT22;4809;48.224;8.572;2023-02-28T16:09:15;9.80;37.70
9542;DHT22;4809;48.224;8.572;2023-02-28T16:11:53;8.80;40.30
9542;DHT22;4809;48.224;8.572;2023-02-28T16:14:25;8.10;42.30
9542;DHT22;4809;48.224;8.572;2023-02-28T16:16:55;7.30;43.80
9542;DHT22;4809;48.224;8.572;2023-02-28T16:19:22;6.70;46.00
9542;DHT22;4809;48.224;8.572;2023-02-28T16:21:48;6.40;47.00
9542;DHT22;4809;48.224;8.572;2023-02-28T16:24:14;5.90;47.50
9542;DHT22;4809;48.224;8.572;2023-02-28T16:26:42;5.70;49.20
9542;DHT22;4809;48.224;8.572;2023-02-28T16:29:15;5.50;49.60
9542;DHT22;4809;48.224;8.572;2023-02-28T16:31:44;5.30;50.30
9542;DHT22;4809;48.224;8.572;2023-02-28T16:34:09;5.00;50.80
9542;DHT22;4809;48.224;8.572;2023-02-28T16:36:35;4.80;52.10
9542;DHT22;4809;48.224;8.572;2023-02-28T16:39:00;4.60;52.60
9542;DHT22;4809;48.224;8.572;2023-02-28T16:41:28;4.40;53.40
9542;DHT22;4809;48.224;8.572;2023-02-28T16:43:56;4.20;53.70
9542;DHT22;4809;48.224;8.572;2023-02-28T16:46:33;4.00;54.80
9542;DHT22;4809;48.224;8.572;2023-02-28T16:48:59;3.80;55.90
9542;DHT22;4809;48.224;8.572;2023-02-28T16:51:25;3.50;56.60
9542;DHT22;4809;48.224;8.572;2023-02-28T16:53:51;3.30;57.80
9542;DHT22;4809;48.224;8.572;2023-02-28T16:56:24;3.10;58.80
9542;DHT22;4809;48.224;8.572;2023-02-28T16:58:51;3.00;60.30
9542;DHT22;4809;48.224;8.572;2023-02-28T17:01:18;2.80;61.10
9542;DHT22;4809;48.224;8.572;2023-02-28T17:03:48;2.70;62.00
9542;DHT22;4809;48.224;8.572;2023-02-28T17:06:23;2.50;63.10
9542;DHT22;4809;48.224;8.572;2023-02-28T17:08:50;2.50;65.20
9542;DHT22;4809;48.224;8.572;2023-02-28T17:11:16;2.20;66.10
9542;DHT22;4809;48.224;8.572;2023-02-28T17:13:42;2.10;68.00
9542;DHT22;4809;48.224;8.572;2023-02-28T17:16:23;2.00;70.40
9542;DHT22;4809;48.224;8.572;2023-02-28T17:18:50;1.90;71.00
9542;DHT22;4809;48.224;8.572;2023-02-28T17:21:17;1.90;72.40
9542;DHT22;4809;48.224;8.572;2023-02-28T17:23:43;1.80;73.60
9542;DHT22;4809;48.224;8.572;2023-02-28T17:26:15;1.70;75.30
